sensor_id;sensor_type;location;lat;lon;timestamp;P1;durP1;ratioP1;P2;durP2;ratioP2
64643;SDS011;51056;50.330;7.914;2024-01-30T00:04:50;9.23;;;6.75;;
64643;SDS011;51056;50.330;7.914;2024-01-30T00:07:54;10.82;;;7.40;;
64643;SDS011;51056;50.330;7.914;2024-01-30T00:10:57;10.40;;;6.93;;
64643;SDS011;51056;50.330;7.914;2024-01-30T00:14:00;11.13;;;7.60;;
64643;SDS011;51056;50.330;7.914;2024-01-30T00:17:04;10.65;;;7.28;;
64643;SDS011;51056;50.330;7.914;2024-01-30T00:20:07;10.40;;;7.25;;
64643;SDS011;51056;50.330;7.914;2024-01-30T00:23:11;14.00;;;7.93;;
64643;SDS011;51056;50.330;7.914;2024-01-30T00:29:18;11.13;;;6.88;;
64643;SDS011;51056;50.330;7.914;2024-01-30T00:32:22;9.15;;;6.45;;
64643;SDS011;51056;50.330;7.914;2024-01-30T00:38:29;11.10;;;7.65;;
64643;SDS011;51056;50.330;7.914;2024-01-30T00:41:32;11.95;;;7.75;;
64643;SDS011;51056;50.330;7.914;2024-01-30T00:44:36;10.50;;;6.75;;
64643;SDS011;51056;50.330;7.914;2024-01-30T00:47:42;10.43;;;7.35;;
64643;SDS011;51056;50.330;7.914;2024-01-30T00:50:46;10.65;;;7.28;;
64643;SDS011;51056;50.330;7.914;2024-01-30T00:56:52;10.27;;;6.82;;
64643;SDS011;51056;50.330;7.914;2024-01-30T00:59:56;11.63;;;7.68;;
64643;SDS011;51056;50.330;7.914;2024-01-30T01:03:00;11.50;;;7.70;;
64643;SDS011;51056;50.330;7.914;2024-01-30T01:06:03;13.20;;;8.25;;
64643;SDS011;51056;50.330;7.914;2024-01-30T01:09:06;10.52;;;6.88;;
64643;SDS011;51056;50.330;7.914;2024-01-30T01:12:10;10.73;;;6.95;;
64643;SDS011;51056;50.330;7.914;2024-01-30T01:15:13;12.30;;;7.50;;
64643;SDS011;51056;50.330;7.914;2024-01-30T01:18:16;11.43;;;7.85;;
64643;SDS011;51056;50.330;7.914;2024-01-30T01:21:19;11.93;;;8.35;;
64643;SDS011;51056;50.330;7.914;2024-01-30T01:24:23;11.93;;;7.85;;
64643;SDS011;51056;50.330;7.914;2024-01-30T01:27:27;9.00;;;6.90;;
64643;SDS011;51056;50.330;7.914;2024-01-30T01:33:33;10.50;;;7.13;;
64643;SDS011;51056;50.330;7.914;2024-01-30T01:36:37;10.35;;;7.57;;
64643;SDS011;51056;50.330;7.914;2024-01-30T01:42:43;12.52;;;8.10;;
64643;SDS011;51056;50.330;7.914;2024-01-30T01:45:46;11.52;;;8.48;;
64643;SDS011;51056;50.330;7.914;2024-01-30T01:48:49;13.30;;;7.97;;
64643;SDS011;51056;50.330;7.914;2024-01-30T01:51:53;8.65;;;7.60;;
64643;SDS011;51056;50.330;7.914;2024-01-30T01:55:01;12.13;;;8.43;;
64643;SDS011;51056;50.330;7.914;2024-01-30T01:58:04;11.85;;;8.57;;
64643;SDS011;51056;50.330;7.914;2024-01-30T02:01:08;13.68;;;8.82;;
64643;SDS011;51056;50.330;7.914;2024-01-30T02:04:12;13.18;;;9.05;;
64643;SDS011;51056;50.330;7.914;2024-01-30T02:10:18;10.98;;;7.85;;
64643;SDS011;51056;50.330;7.914;2024-01-30T02:13:21;12.02;;;8.55;;
64643;SDS011;51056;50.330;7.914;2024-01-30T02:16:24;12.50;;;8.95;;
64643;SDS011;51056;50.330;7.914;2024-01-30T02:19:28;10.65;;;7.85;;
64643;SDS011;51056;50.330;7.914;2024-01-30T02:22:32;10.25;;;7.90;;
64643;SDS011;51056;50.330;7.914;2024-01-30T02:25:38;14.10;;;8.38;;
64643;SDS011;51056;50.330;7.914;2024-01-30T02:28:46;12.38;;;8.75;;
64643;SDS011;51056;50.330;7.914;2024-01-30T02:31:50;11.27;;;8.82;;
64643;SDS011;51056;50.330;7.914;2024-01-30T02:37:56;12.63;;;8.80;;
64643;SDS011;51056;50.330;7.914;2024-01-30T02:40:59;10.77;;;7.90;;
64643;SDS011;51056;50.330;7.914;2024-01-30T02:44:03;12.95;;;8.75;;
64643;SDS011;51056;50.330;7.914;2024-01-30T02:50:09;11.00;;;7.90;;
64643;SDS011;51056;50.330;7.914;2024-01-30T02:56:15;11.80;;;8.30;;
64643;SDS011;51056;50.330;7.914;2024-01-30T02:59:19;10.10;;;8.05;;
64643;SDS011;51056;50.330;7.914;2024-01-30T03:02:22;13.02;;;8.30;;
64643;SDS011;51056;50.330;7.914;2024-01-30T03:05:25;11.20;;;8.43;;
64643;SDS011;51056;50.330;7.914;2024-01-30T03:08:29;12.05;;;7.75;;
64643;SDS011;51056;50.330;7.914;2024-01-30T03:11:32;13.38;;;7.78;;
64643;SDS011;51056;50.330;7.914;2024-01-30T03:14:35;10.55;;;7.68;;
64643;SDS011;51056;50.330;7.914;2024-01-30T03:17:39;11.77;;;9.40;;
64643;SDS011;51056;50.330;7.914;2024-01-30T03:23:45;13.38;;;9.57;;
64643;SDS011;51056;50.330;7.914;2024-01-30T03:26:48;12.40;;;8.60;;
64643;SDS011;51056;50.330;7.914;2024-01-30T03:32:55;12.75;;;9.07;;
64643;SDS011;51056;50.330;7.914;2024-01-30T03:36:02;9.70;;;7.85;;
64643;SDS011;51056;50.330;7.914;2024-01-30T03:39:06;13.95;;;9.27;;
64643;SDS011;51056;50.330;7.914;2024-01-30T03:45:13;12.32;;;7.22;;
64643;SDS011;51056;50.330;7.914;2024-01-30T03:48:16;12.07;;;8.40;;
64643;SDS011;51056;50.330;7.914;2024-01-30T03:51:19;10.95;;;8.85;;
64643;SDS011;51056;50.330;7.914;2024-01-30T03:54:23;10.43;;;7.65;;
64643;SDS011;51056;50.330;7.914;2024-01-30T03:57:26;11.63;;;8.32;;
64643;SDS011;51056;50.330;7.914;2024-01-30T04:00:29;11.35;;;7.63;;
64643;SDS011;51056;50.330;7.914;2024-01-30T04:03:33;13.27;;;8.65;;
64643;SDS011;51056;50.330;7.914;2024-01-30T04:06:36;13.27;;;8.25;;
64643;SDS011;51056;50.330;7.914;2024-01-30T04:09:40;12.15;;;8.27;;
64643;SDS011;51056;50.330;7.914;2024-01-30T04:12:43;10.50;;;8.02;;
64643;SDS011;51056;50.330;7.914;2024-01-30T04:15:46;11.60;;;8.15;;
64643;SDS011;51056;50.330;7.914;2024-01-30T04:18:51;11.88;;;8.32;;
64643;SDS011;51056;50.330;7.914;2024-01-30T04:21:54;15.63;;;10.60;;
64643;SDS011;51056;50.330;7.914;2024-01-30T04:24:57;14.95;;;11.65;;
64643;SDS011;51056;50.330;7.914;2024-01-30T04:28:01;14.73;;;8.13;;
64643;SDS011;51056;50.330;7.914;2024-01-30T04:31:04;14.95;;;9.05;;
64643;SDS011;51056;50.330;7.914;2024-01-30T04:34:08;12.23;;;8.55;;
64643;SDS011;51056;50.330;7.914;2024-01-30T04:37:11;12.88;;;8.60;;
64643;SDS011;51056;50.330;7.914;2024-01-30T04:40:14;12.27;;;8.75;;
64643;SDS011;51056;50.330;7.914;2024-01-30T04:43:18;11.85;;;8.38;;
64643;SDS011;51056;50.330;7.914;2024-01-30T04:46:21;14.18;;;8.88;;
64643;SDS011;51056;50.330;7.914;2024-01-30T04:49:25;14.63;;;8.23;;
64643;SDS011;51056;50.330;7.914;2024-01-30T04:52:28;12.63;;;9.07;;
64643;SDS011;51056;50.330;7.914;2024-01-30T04:55:31;13.32;;;8.90;;
64643;SDS011;51056;50.330;7.914;2024-01-30T04:58:35;12.75;;;8.85;;
64643;SDS011;51056;50.330;7.914;2024-01-30T05:01:38;12.07;;;7.72;;
64643;SDS011;51056;50.330;7.914;2024-01-30T05:04:42;12.13;;;8.75;;
64643;SDS011;51056;50.330;7.914;2024-01-30T05:07:45;12.18;;;8.50;;
64643;SDS011;51056;50.330;7.914;2024-01-30T05:10:48;12.48;;;8.50;;
64643;SDS011;51056;50.330;7.914;2024-01-30T05:13:52;12.20;;;8.23;;
64643;SDS011;51056;50.330;7.914;2024-01-30T05:16:55;10.80;;;7.55;;
64643;SDS011;51056;50.330;7.914;2024-01-30T05:19:59;13.32;;;9.63;;
64643;SDS011;51056;50.330;7.914;2024-01-30T05:23:02;9.02;;;6.93;;
64643;SDS011;51056;50.330;7.914;2024-01-30T05:26:05;9.68;;;7.75;;
64643;SDS011;51056;50.330;7.914;2024-01-30T05:32:11;10.90;;;8.23;;
64643;SDS011;51056;50.330;7.914;2024-01-30T05:35:15;12.85;;;8.35;;
64643;SDS011;51056;50.330;7.914;2024-01-30T05:38:18;10.57;;;8.05;;
64643;SDS011;51056;50.330;7.914;2024-01-30T05:41:21;10.90;;;8.82;;
64643;SDS011;51056;50.330;7.914;2024-01-30T05:44:24;12.70;;;8.32;;
64643;SDS011;51056;50.330;7.914;2024-01-30T05:47:28;9.40;;;7.30;;
64643;SDS011;51056;50.330;7.914;2024-01-30T05:50:31;10.57;;;7.82;;
64643;SDS011;51056;50.330;7.914;2024-01-30T05:53:35;11.68;;;8.68;;
64643;SDS011;51056;50.330;7.914;2024-01-30T05:56:38;12.90;;;9.50;;
64643;SDS011;51056;50.330;7.914;2024-01-30T05:59:41;9.77;;;8.75;;
64643;SDS011;51056;50.330;7.914;2024-01-30T06:02:46;12.60;;;8.70;;
64643;SDS011;51056;50.330;7.914;2024-01-30T06:05:50;10.95;;;8.32;;
64643;SDS011;51056;50.330;7.914;2024-01-30T06:08:53;13.38;;;8.98;;
64643;SDS011;51056;50.330;7.914;2024-01-30T06:11:58;12.23;;;7.95;;
64643;SDS011;51056;50.330;7.914;2024-01-30T06:18:05;15.68;;;9.27;;
64643;SDS011;51056;50.330;7.914;2024-01-30T06:21:09;12.40;;;7.97;;
64643;SDS011;51056;50.330;7.914;2024-01-30T06:24:13;11.10;;;7.93;;
64643;SDS011;51056;50.330;7.914;2024-01-30T06:27:18;10.80;;;8.25;;
64643;SDS011;51056;50.330;7.914;2024-01-30T06:30:23;13.15;;;8.45;;
64643;SDS011;51056;50.330;7.914;2024-01-30T06:40:33;15.07;;;10.07;;
64643;SDS011;51056;50.330;7.914;2024-01-30T06:43:37;17.75;;;11.63;;
64643;SDS011;51056;50.330;7.914;2024-01-30T06:46:40;13.60;;;9.52;;
64643;SDS011;51056;50.330;7.914;2024-01-30T06:49:43;12.35;;;9.65;;
64643;SDS011;51056;50.330;7.914;2024-01-30T06:52:48;13.65;;;9.15;;
64643;SDS011;51056;50.330;7.914;2024-01-30T06:55:51;16.67;;;9.15;;
64643;SDS011;51056;50.330;7.914;2024-01-30T06:58:54;22.40;;;12.52;;
64643;SDS011;51056;50.330;7.914;2024-01-30T07:01:58;20.88;;;12.60;;
64643;SDS011;51056;50.330;7.914;2024-01-30T07:05:01;24.17;;;13.52;;
64643;SDS011;51056;50.330;7.914;2024-01-30T07:08:04;22.23;;;13.25;;
64643;SDS011;51056;50.330;7.914;2024-01-30T07:11:09;21.88;;;13.23;;
64643;SDS011;51056;50.330;7.914;2024-01-30T07:14:12;22.95;;;14.95;;
64643;SDS011;51056;50.330;7.914;2024-01-30T07:17:15;20.98;;;12.52;;
64643;SDS011;51056;50.330;7.914;2024-01-30T07:23:23;23.35;;;13.52;;
64643;SDS011;51056;50.330;7.914;2024-01-30T07:26:26;19.83;;;13.25;;
64643;SDS011;51056;50.330;7.914;2024-01-30T07:29:30;23.08;;;13.68;;
64643;SDS011;51056;50.330;7.914;2024-01-30T07:35:36;23.83;;;14.00;;
64643;SDS011;51056;50.330;7.914;2024-01-30T07:38:39;22.67;;;15.98;;
64643;SDS011;51056;50.330;7.914;2024-01-30T07:41:43;21.42;;;13.77;;
64643;SDS011;51056;50.330;7.914;2024-01-30T07:44:46;20.88;;;12.77;;
64643;SDS011;51056;50.330;7.914;2024-01-30T07:47:50;17.40;;;11.80;;
64643;SDS011;51056;50.330;7.914;2024-01-30T07:50:53;22.05;;;12.82;;
64643;SDS011;51056;50.330;7.914;2024-01-30T07:53:57;22.55;;;12.95;;
64643;SDS011;51056;50.330;7.914;2024-01-30T07:57:00;18.05;;;12.38;;
64643;SDS011;51056;50.330;7.914;2024-01-30T08:00:04;19.38;;;12.65;;
64643;SDS011;51056;50.330;7.914;2024-01-30T08:03:09;19.40;;;12.98;;
64643;SDS011;51056;50.330;7.914;2024-01-30T08:06:12;18.40;;;12.82;;
64643;SDS011;51056;50.330;7.914;2024-01-30T08:09:16;19.90;;;12.15;;
64643;SDS011;51056;50.330;7.914;2024-01-30T08:12:19;18.13;;;12.73;;
64643;SDS011;51056;50.330;7.914;2024-01-30T08:15:22;18.92;;;12.20;;
64643;SDS011;51056;50.330;7.914;2024-01-30T08:18:25;21.90;;;14.02;;
64643;SDS011;51056;50.330;7.914;2024-01-30T08:24:32;23.55;;;15.27;;
64643;SDS011;51056;50.330;7.914;2024-01-30T08:27:35;21.00;;;14.95;;
64643;SDS011;51056;50.330;7.914;2024-01-30T08:30:41;17.75;;;12.93;;
64643;SDS011;51056;50.330;7.914;2024-01-30T08:36:47;16.00;;;11.73;;
64643;SDS011;51056;50.330;7.914;2024-01-30T08:42:54;14.97;;;11.47;;
64643;SDS011;51056;50.330;7.914;2024-01-30T08:46:00;15.73;;;10.75;;
64643;SDS011;51056;50.330;7.914;2024-01-30T08:49:04;14.90;;;10.82;;
64643;SDS011;51056;50.330;7.914;2024-01-30T08:52:07;16.23;;;11.57;;
64643;SDS011;51056;50.330;7.914;2024-01-30T08:55:10;15.32;;;11.18;;
64643;SDS011;51056;50.330;7.914;2024-01-30T08:58:15;16.77;;;11.05;;
64643;SDS011;51056;50.330;7.914;2024-01-30T09:01:21;14.55;;;10.68;;
64643;SDS011;51056;50.330;7.914;2024-01-30T09:04:24;15.48;;;11.13;;
64643;SDS011;51056;50.330;7.914;2024-01-30T09:07:28;14.25;;;11.70;;
64643;SDS011;51056;50.330;7.914;2024-01-30T09:10:31;15.90;;;12.73;;
64643;SDS011;51056;50.330;7.914;2024-01-30T09:13:34;16.98;;;12.40;;
64643;SDS011;51056;50.330;7.914;2024-01-30T09:16:37;16.20;;;12.27;;
64643;SDS011;51056;50.330;7.914;2024-01-30T09:19:41;14.80;;;11.48;;
64643;SDS011;51056;50.330;7.914;2024-01-30T09:25:48;15.75;;;10.93;;
64643;SDS011;51056;50.330;7.914;2024-01-30T09:28:51;13.93;;;11.30;;
64643;SDS011;51056;50.330;7.914;2024-01-30T09:31:54;15.00;;;10.98;;
64643;SDS011;51056;50.330;7.914;2024-01-30T09:34:57;13.48;;;10.55;;
64643;SDS011;51056;50.330;7.914;2024-01-30T09:38:02;13.80;;;10.55;;
64643;SDS011;51056;50.330;7.914;2024-01-30T09:41:06;12.80;;;10.25;;
64643;SDS011;51056;50.330;7.914;2024-01-30T09:44:15;12.80;;;10.88;;
64643;SDS011;51056;50.330;7.914;2024-01-30T09:47:19;13.60;;;9.90;;
64643;SDS011;51056;50.330;7.914;2024-01-30T09:50:22;13.88;;;10.90;;
64643;SDS011;51056;50.330;7.914;2024-01-30T09:53:26;12.27;;;10.63;;
64643;SDS011;51056;50.330;7.914;2024-01-30T09:56:29;16.92;;;11.75;;
64643;SDS011;51056;50.330;7.914;2024-01-30T09:59:32;12.55;;;10.02;;
64643;SDS011;51056;50.330;7.914;2024-01-30T10:02:36;14.00;;;11.35;;
64643;SDS011;51056;50.330;7.914;2024-01-30T10:05:39;13.48;;;9.30;;
64643;SDS011;51056;50.330;7.914;2024-01-30T10:08:43;12.60;;;10.05;;
64643;SDS011;51056;50.330;7.914;2024-01-30T10:11:46;14.00;;;10.88;;
64643;SDS011;51056;50.330;7.914;2024-01-30T10:14:51;11.63;;;9.30;;
64643;SDS011;51056;50.330;7.914;2024-01-30T10:17:54;14.52;;;11.05;;
64643;SDS011;51056;50.330;7.914;2024-01-30T10:20:58;12.15;;;9.60;;
64643;SDS011;51056;50.330;7.914;2024-01-30T10:24:02;12.95;;;10.65;;
64643;SDS011;51056;50.330;7.914;2024-01-30T10:27:05;13.43;;;10.45;;
64643;SDS011;51056;50.330;7.914;2024-01-30T10:30:09;11.38;;;9.25;;
64643;SDS011;51056;50.330;7.914;2024-01-30T10:33:12;11.10;;;9.77;;
64643;SDS011;51056;50.330;7.914;2024-01-30T10:36:16;11.52;;;9.80;;
64643;SDS011;51056;50.330;7.914;2024-01-30T10:39:20;12.00;;;9.95;;
64643;SDS011;51056;50.330;7.914;2024-01-30T10:42:26;14.60;;;9.50;;
64643;SDS011;51056;50.330;7.914;2024-01-30T10:45:34;9.93;;;8.90;;
64643;SDS011;51056;50.330;7.914;2024-01-30T10:48:42;14.07;;;10.20;;
64643;SDS011;51056;50.330;7.914;2024-01-30T10:51:47;14.30;;;9.18;;
64643;SDS011;51056;50.330;7.914;2024-01-30T10:54:52;14.73;;;9.77;;
64643;SDS011;51056;50.330;7.914;2024-01-30T10:57:56;12.25;;;9.20;;
64643;SDS011;51056;50.330;7.914;2024-01-30T11:00:59;10.90;;;8.35;;
64643;SDS011;51056;50.330;7.914;2024-01-30T11:04:04;50.90;;;37.80;;
64643;SDS011;51056;50.330;7.914;2024-01-30T11:07:13;19.13;;;15.30;;
64643;SDS011;51056;50.330;7.914;2024-01-30T11:10:20;13.25;;;10.18;;
64643;SDS011;51056;50.330;7.914;2024-01-30T11:16:33;11.43;;;9.38;;
64643;SDS011;51056;50.330;7.914;2024-01-30T11:19:37;15.55;;;10.27;;
64643;SDS011;51056;50.330;7.914;2024-01-30T11:25:44;16.85;;;10.50;;
64643;SDS011;51056;50.330;7.914;2024-01-30T11:28:52;15.02;;;10.00;;
64643;SDS011;51056;50.330;7.914;2024-01-30T11:31:55;14.65;;;11.73;;
64643;SDS011;51056;50.330;7.914;2024-01-30T11:35:00;19.27;;;12.60;;
64643;SDS011;51056;50.330;7.914;2024-01-30T11:38:09;14.90;;;11.73;;
64643;SDS011;51056;50.330;7.914;2024-01-30T11:41:21;17.00;;;11.65;;
64643;SDS011;51056;50.330;7.914;2024-01-30T11:44:26;14.75;;;10.93;;
64643;SDS011;51056;50.330;7.914;2024-01-30T11:47:29;16.45;;;11.63;;
64643;SDS011;51056;50.330;7.914;2024-01-30T11:50:33;14.60;;;11.55;;
64643;SDS011;51056;50.330;7.914;2024-01-30T11:53:37;18.70;;;12.65;;
64643;SDS011;51056;50.330;7.914;2024-01-30T11:56:40;16.13;;;13.00;;
64643;SDS011;51056;50.330;7.914;2024-01-30T11:59:44;15.50;;;11.95;;
64643;SDS011;51056;50.330;7.914;2024-01-30T12:02:51;16.15;;;13.13;;
64643;SDS011;51056;50.330;7.914;2024-01-30T12:06:03;14.07;;;10.93;;
64643;SDS011;51056;50.330;7.914;2024-01-30T12:09:06;12.40;;;11.07;;
64643;SDS011;51056;50.330;7.914;2024-01-30T12:12:11;15.27;;;12.38;;
64643;SDS011;51056;50.330;7.914;2024-01-30T12:15:15;15.73;;;12.15;;
64643;SDS011;51056;50.330;7.914;2024-01-30T12:18:18;14.80;;;12.48;;
64643;SDS011;51056;50.330;7.914;2024-01-30T12:21:22;15.30;;;10.68;;
64643;SDS011;51056;50.330;7.914;2024-01-30T12:24:29;16.35;;;12.52;;
64643;SDS011;51056;50.330;7.914;2024-01-30T12:27:35;15.43;;;11.75;;
64643;SDS011;51056;50.330;7.914;2024-01-30T12:30:39;15.45;;;11.27;;
64643;SDS011;51056;50.330;7.914;2024-01-30T12:33:42;20.58;;;13.60;;
64643;SDS011;51056;50.330;7.914;2024-01-30T12:36:45;14.20;;;10.95;;
64643;SDS011;51056;50.330;7.914;2024-01-30T12:39:51;13.95;;;11.07;;
64643;SDS011;51056;50.330;7.914;2024-01-30T12:42:56;18.05;;;12.55;;
64643;SDS011;51056;50.330;7.914;2024-01-30T12:45:59;18.77;;;13.07;;
64643;SDS011;51056;50.330;7.914;2024-01-30T12:49:03;18.05;;;11.55;;
64643;SDS011;51056;50.330;7.914;2024-01-30T12:55:10;12.90;;;9.98;;
64643;SDS011;51056;50.330;7.914;2024-01-30T12:58:14;16.75;;;10.73;;
64643;SDS011;51056;50.330;7.914;2024-01-30T13:01:17;11.93;;;10.52;;
64643;SDS011;51056;50.330;7.914;2024-01-30T13:04:20;13.60;;;10.80;;
64643;SDS011;51056;50.330;7.914;2024-01-30T13:10:26;13.85;;;10.82;;
64643;SDS011;51056;50.330;7.914;2024-01-30T13:13:30;12.75;;;9.80;;
64643;SDS011;51056;50.330;7.914;2024-01-30T13:16:33;17.25;;;11.55;;
64643;SDS011;51056;50.330;7.914;2024-01-30T13:19:37;13.13;;;10.13;;
64643;SDS011;51056;50.330;7.914;2024-01-30T13:22:40;12.07;;;10.02;;
64643;SDS011;51056;50.330;7.914;2024-01-30T13:25:43;16.23;;;9.85;;
64643;SDS011;51056;50.330;7.914;2024-01-30T13:28:47;18.50;;;10.30;;
64643;SDS011;51056;50.330;7.914;2024-01-30T13:34:53;11.85;;;8.88;;
64643;SDS011;51056;50.330;7.914;2024-01-30T13:37:56;13.25;;;10.32;;
64643;SDS011;51056;50.330;7.914;2024-01-30T13:44:03;19.73;;;9.77;;
64643;SDS011;51056;50.330;7.914;2024-01-30T13:47:07;13.82;;;9.52;;
64643;SDS011;51056;50.330;7.914;2024-01-30T13:53:17;13.98;;;9.90;;
64643;SDS011;51056;50.330;7.914;2024-01-30T13:56:21;13.18;;;9.20;;
64643;SDS011;51056;50.330;7.914;2024-01-30T13:59:24;19.27;;;12.32;;
64643;SDS011;51056;50.330;7.914;2024-01-30T14:02:28;13.60;;;10.43;;
64643;SDS011;51056;50.330;7.914;2024-01-30T14:05:31;16.73;;;10.68;;
64643;SDS011;51056;50.330;7.914;2024-01-30T14:08:35;13.70;;;10.57;;
64643;SDS011;51056;50.330;7.914;2024-01-30T14:14:41;12.25;;;9.18;;
64643;SDS011;51056;50.330;7.914;2024-01-30T14:23:51;14.20;;;9.90;;
64643;SDS011;51056;50.330;7.914;2024-01-30T14:26:54;18.73;;;10.82;;
64643;SDS011;51056;50.330;7.914;2024-01-30T14:33:01;21.67;;;12.95;;
64643;SDS011;51056;50.330;7.914;2024-01-30T14:36:05;15.65;;;11.48;;
64643;SDS011;51056;50.330;7.914;2024-01-30T14:42:12;20.95;;;10.73;;
64643;SDS011;51056;50.330;7.914;2024-01-30T14:45:15;13.65;;;10.35;;
64643;SDS011;51056;50.330;7.914;2024-01-30T14:48:19;20.90;;;9.38;;
64643;SDS011;51056;50.330;7.914;2024-01-30T17:42:32;25.90;;;10.77;;
64643;SDS011;51056;50.330;7.914;2024-01-30T17:45:56;16.25;;;10.30;;
64643;SDS011;51056;50.330;7.914;2024-01-30T17:49:19;22.13;;;11.52;;
64643;SDS011;51056;50.330;7.914;2024-01-30T17:52:42;27.38;;;14.60;;
64643;SDS011;51056;50.330;7.914;2024-01-30T18:00:26;25.70;;;12.98;;
64643;SDS011;51056;50.330;7.914;2024-01-30T18:03:48;25.95;;;15.20;;
64643;SDS011;51056;50.330;7.914;2024-01-30T18:07:13;25.13;;;13.60;;
64643;SDS011;51056;50.330;7.914;2024-01-30T18:10:57;20.98;;;13.80;;
64643;SDS011;51056;50.330;7.914;2024-01-30T18:14:26;30.35;;;15.90;;
64643;SDS011;51056;50.330;7.914;2024-01-30T18:17:48;30.13;;;18.40;;
64643;SDS011;51056;50.330;7.914;2024-01-30T18:21:14;28.95;;;16.92;;
64643;SDS011;51056;50.330;7.914;2024-01-30T18:28:01;19.23;;;13.70;;
64643;SDS011;51056;50.330;7.914;2024-01-30T18:31:25;23.20;;;15.32;;
64643;SDS011;51056;50.330;7.914;2024-01-30T18:34:48;24.40;;;15.73;;
64643;SDS011;51056;50.330;7.914;2024-01-30T18:38:11;24.73;;;16.23;;
64643;SDS011;51056;50.330;7.914;2024-01-30T18:41:48;24.80;;;15.52;;
64643;SDS011;51056;50.330;7.914;2024-01-30T18:44:53;31.55;;;20.67;;
64643;SDS011;51056;50.330;7.914;2024-01-30T18:47:57;28.33;;;16.40;;
64643;SDS011;51056;50.330;7.914;2024-01-30T18:51:01;18.40;;;13.90;;
64643;SDS011;51056;50.330;7.914;2024-01-30T18:54:06;23.67;;;16.63;;
64643;SDS011;51056;50.330;7.914;2024-01-30T18:57:11;58.92;;;36.63;;
64643;SDS011;51056;50.330;7.914;2024-01-30T19:00:15;61.83;;;35.78;;
64643;SDS011;51056;50.330;7.914;2024-01-30T19:03:18;53.08;;;35.15;;
64643;SDS011;51056;50.330;7.914;2024-01-30T19:06:21;46.42;;;26.50;;
64643;SDS011;51056;50.330;7.914;2024-01-30T19:09:25;48.88;;;29.92;;
64643;SDS011;51056;50.330;7.914;2024-01-30T19:12:29;51.83;;;29.15;;
64643;SDS011;51056;50.330;7.914;2024-01-30T19:15:33;53.22;;;28.27;;
64643;SDS011;51056;50.330;7.914;2024-01-30T19:18:37;58.35;;;32.75;;
64643;SDS011;51056;50.330;7.914;2024-01-30T19:21:41;42.88;;;26.38;;
64643;SDS011;51056;50.330;7.914;2024-01-30T19:31:50;33.50;;;20.67;;
64643;SDS011;51056;50.330;7.914;2024-01-30T19:34:56;30.73;;;17.60;;
64643;SDS011;51056;50.330;7.914;2024-01-30T19:46:29;29.95;;;19.25;;
64643;SDS011;51056;50.330;7.914;2024-01-30T19:49:36;31.38;;;17.70;;
64643;SDS011;51056;50.330;7.914;2024-01-30T19:52:47;31.40;;;19.30;;
64643;SDS011;51056;50.330;7.914;2024-01-30T19:55:51;28.48;;;15.77;;
64643;SDS011;51056;50.330;7.914;2024-01-30T19:58:58;26.33;;;18.02;;
64643;SDS011;51056;50.330;7.914;2024-01-30T20:02:03;26.85;;;16.83;;
64643;SDS011;51056;50.330;7.914;2024-01-30T20:08:10;20.27;;;14.07;;
64643;SDS011;51056;50.330;7.914;2024-01-30T20:11:16;17.88;;;12.55;;
64643;SDS011;51056;50.330;7.914;2024-01-30T20:17:25;26.30;;;15.63;;
64643;SDS011;51056;50.330;7.914;2024-01-30T20:20:29;23.27;;;15.13;;
64643;SDS011;51056;50.330;7.914;2024-01-30T20:26:35;27.50;;;17.08;;
64643;SDS011;51056;50.330;7.914;2024-01-30T20:29:39;33.78;;;22.95;;
64643;SDS011;51056;50.330;7.914;2024-01-30T20:35:45;34.03;;;20.65;;
64643;SDS011;51056;50.330;7.914;2024-01-30T20:38:48;46.00;;;27.40;;
64643;SDS011;51056;50.330;7.914;2024-01-30T20:41:54;39.78;;;25.25;;
64643;SDS011;51056;50.330;7.914;2024-01-30T20:45:01;34.05;;;20.15;;
64643;SDS011;51056;50.330;7.914;2024-01-30T20:48:07;30.02;;;19.63;;
64643;SDS011;51056;50.330;7.914;2024-01-30T20:54:23;27.33;;;17.48;;
64643;SDS011;51056;50.330;7.914;2024-01-30T21:00:58;32.75;;;20.08;;
64643;SDS011;51056;50.330;7.914;2024-01-30T21:04:09;32.75;;;18.67;;
64643;SDS011;51056;50.330;7.914;2024-01-30T21:07:14;30.73;;;18.35;;
64643;SDS011;51056;50.330;7.914;2024-01-30T21:13:21;34.15;;;20.63;;
64643;SDS011;51056;50.330;7.914;2024-01-30T21:16:25;28.73;;;19.38;;
64643;SDS011;51056;50.330;7.914;2024-01-30T21:19:28;25.30;;;16.80;;
64643;SDS011;51056;50.330;7.914;2024-01-30T21:25:36;26.88;;;16.70;;
64643;SDS011;51056;50.330;7.914;2024-01-30T21:28:40;23.65;;;16.08;;
64643;SDS011;51056;50.330;7.914;2024-01-30T21:34:49;27.23;;;16.63;;
64643;SDS011;51056;50.330;7.914;2024-01-30T21:40:59;28.98;;;18.25;;
64643;SDS011;51056;50.330;7.914;2024-01-30T21:44:04;23.85;;;16.30;;
64643;SDS011;51056;50.330;7.914;2024-01-30T21:47:07;26.20;;;16.50;;
64643;SDS011;51056;50.330;7.914;2024-01-30T21:50:11;31.65;;;20.48;;
64643;SDS011;51056;50.330;7.914;2024-01-30T21:56:18;31.55;;;19.13;;
64643;SDS011;51056;50.330;7.914;2024-01-30T21:59:21;24.98;;;17.38;;
64643;SDS011;51056;50.330;7.914;2024-01-30T22:05:27;28.77;;;19.17;;
64643;SDS011;51056;50.330;7.914;2024-01-30T22:08:31;30.73;;;19.20;;
64643;SDS011;51056;50.330;7.914;2024-01-30T22:11:34;27.33;;;16.52;;
64643;SDS011;51056;50.330;7.914;2024-01-30T22:17:40;26.80;;;15.37;;
64643;SDS011;51056;50.330;7.914;2024-01-30T22:20:43;25.45;;;15.07;;
64643;SDS011;51056;50.330;7.914;2024-01-30T22:23:46;20.95;;;14.88;;
64643;SDS011;51056;50.330;7.914;2024-01-30T22:29:53;19.83;;;14.27;;
64643;SDS011;51056;50.330;7.914;2024-01-30T22:32:56;21.83;;;14.20;;
64643;SDS011;51056;50.330;7.914;2024-01-30T22:36:00;27.90;;;19.10;;
64643;SDS011;51056;50.330;7.914;2024-01-30T22:39:03;27.00;;;19.02;;
64643;SDS011;51056;50.330;7.914;2024-01-30T22:42:07;24.63;;;18.20;;
64643;SDS011;51056;50.330;7.914;2024-01-30T22:45:11;26.63;;;15.63;;
64643;SDS011;51056;50.330;7.914;2024-01-30T22:48:14;19.73;;;14.68;;
64643;SDS011;51056;50.330;7.914;2024-01-30T22:54:20;23.17;;;16.48;;
64643;SDS011;51056;50.330;7.914;2024-01-30T22:57:23;23.23;;;16.77;;
64643;SDS011;51056;50.330;7.914;2024-01-30T23:03:31;27.42;;;18.05;;
64643;SDS011;51056;50.330;7.914;2024-01-30T23:09:37;23.48;;;17.85;;
64643;SDS011;51056;50.330;7.914;2024-01-30T23:12:41;24.25;;;18.25;;
64643;SDS011;51056;50.330;7.914;2024-01-30T23:15:45;21.23;;;13.35;;
64643;SDS011;51056;50.330;7.914;2024-01-30T23:21:52;21.65;;;14.57;;
64643;SDS011;51056;50.330;7.914;2024-01-30T23:27:59;24.00;;;16.17;;
64643;SDS011;51056;50.330;7.914;2024-01-30T23:31:02;19.90;;;14.93;;
64643;SDS011;51056;50.330;7.914;2024-01-30T23:34:05;20.27;;;13.10;;
64643;SDS011;51056;50.330;7.914;2024-01-30T23:40:12;20.92;;;15.30;;
64643;SDS011;51056;50.330;7.914;2024-01-30T23:43:15;24.38;;;16.60;;
64643;SDS011;51056;50.330;7.914;2024-01-30T23:46:19;22.80;;;16.05;;
64643;SDS011;51056;50.330;7.914;2024-01-30T23:52:25;21.63;;;14.52;;
64643;SDS011;51056;50.330;7.914;2024-01-30T23:55:29;21.40;;;13.02;;
